메인 페이지
METAR-TAF:

METAR-TAF

공항 :

해리스버그 / Middletown, 펜실베이니아, 미국

위도: 40-11-37N, 경도: 076-45-48W, 고도: 95m

현재 날씨관측

예보는 24분 전, 14:56시(UTC)에 발표되었습니다.
여러 방향의 바람 5kt
온도 24°C
습도 61%
기압 1020 hPa
시정: 16.1km
고도 5000ft 상공 구름 보통

METAR: KMDT 061456Z VRB05KT 10SM SCT050 24/16 A3011 RMK AO2 SLP197 T02440156 50003

시각: 11:20 (15:20 UTC)

예보

예보는 4 시간 0분 전, 11:20시(UTC)에 발표되었습니다.
예보 대상 시간: 06일 12시부터 07일 12시까지 (UTC)
북북서6kt
시정: 10km
고도 3000ft 상공 구름 보통
고도 7000ft 상공 흐림
시계 내 소나기
06일 1400시부터 (UTC)
동남동5kt
시정: 10km
고도 5000ft 상공 흐림
06일 1800시부터 (UTC)
동남동6kt
시정: 10km
고도 3500ft 상공 구름 많음
07일 0500시부터 (UTC)
동남동3kt
시정: 10km
고도 2500ft 상공 흐림
07일 1100시부터 (UTC)
3kt
시정: 3.2km
고도 1000ft 상공 흐림
박무

TAF: KMDT 061120Z 0612/0712 33006KT P6SM VCSH SCT030 OVC070 FM061400 11005KT P6SM OVC050 FM061800 11006KT P6SM BKN035 FM070500 12003KT P6SM OVC025 FM071100 08003KT 2SM BR OVC010

4,000개 이상의 공항 관측 자료 및 예보 (METAR 및 TAF 보고).

지도상에서 검색 가능한 기상관측소가 노란 점과 빨간 점으로 표시되어 있습니다.

기상관측소 명을 보려면 표시 위로 마우스를 이동하세요.

날씨 관측과 예보를 보려면 클릭하세요.

지도 변경 : 확대하려면 엑스 표시가 있는 녹색 버튼, 축소하려면 빼기 표시가 있는 녹색 버튼, 다음 페이지의 지도를 보려면 녹색 화살표를 클릭하세요.


METAR-TAF: